Time;durP1;ratioP1;P1;durP2;ratioP2;P2;SDS_P1;SDS_P2;PMS_P1;PMS_P2;Temp;Humidity;BMP_temperature;BMP_pressure;BME280_temperature;BME280_humidity;BME280_pressure;Samples;Min_cycle;Max_cycle;Signal;HPM_P1;HPM_P2
2023/10/01 00:01:33;;;;;;;4.95;2.25;;;14.70;99.90;;;;;;4970004;28;20041;-60
2023/10/01 00:04:01;;;;;;;5.65;2.63;;;14.70;99.90;;;;;;4952699;28;20133;-60
2023/10/01 00:06:27;;;;;;;10.43;3.10;;;14.70;99.90;;;;;;4968561;28;20049;-60
2023/10/01 00:08:53;;;;;;;5.35;2.70;;;14.70;99.90;;;;;;4970225;28;20375;-60
2023/10/01 00:11:19;;;;;;;8.25;3.38;;;14.70;99.90;;;;;;4969416;28;20468;-60
2023/10/01 00:13:45;;;;;;;10.63;3.00;;;14.70;99.90;;;;;;4968901;28;20108;-60
2023/10/01 00:16:11;;;;;;;5.05;2.67;;;14.70;99.90;;;;;;4968949;28;20039;-60
2023/10/01 00:18:37;;;;;;;8.52;3.10;;;14.60;99.90;;;;;;4968907;28;20079;-59
2023/10/01 00:21:03;;;;;;;10.88;4.15;;;14.60;99.90;;;;;;4968296;28;20124;-60
2023/10/01 00:23:28;;;;;;;5.53;2.95;;;14.60;99.90;;;;;;4952579;28;20054;-60
2023/10/01 00:25:55;;;;;;;7.50;3.28;;;14.60;99.90;;;;;;4969712;28;20039;-60
2023/10/01 00:28:21;;;;;;;7.22;2.97;;;14.60;99.90;;;;;;4968696;28;20112;-60
2023/10/01 00:30:47;;;;;;;7.28;3.53;;;14.60;99.90;;;;;;4968656;28;20097;-60
2023/10/01 00:33:15;;;;;;;9.27;3.70;;;14.60;99.90;;;;;;4968497;28;20379;-60
2023/10/01 00:35:41;;;;;;;5.93;3.25;;;14.60;99.90;;;;;;4968936;28;20122;-60
2023/10/01 00:38:07;;;;;;;8.88;3.58;;;14.60;99.90;;;;;;4968767;28;20046;-60
2023/10/01 00:40:33;;;;;;;6.38;3.20;;;14.60;99.90;;;;;;4969071;28;20081;-60
2023/10/01 00:43:00;;;;;;;10.88;4.25;;;14.60;99.90;;;;;;4968448;28;20467;-60
2023/10/01 00:45:27;;;;;;;6.88;3.35;;;14.60;99.90;;;;;;4969763;28;20453;-60
2023/10/01 00:47:53;;;;;;;9.45;3.88;;;14.60;99.90;;;;;;4969283;28;20475;-60
2023/10/01 00:50:23;;;;;;;9.63;4.03;;;14.60;99.90;;;;;;4969637;28;20435;-60
2023/10/01 00:52:51;;;;;;;7.55;3.75;;;14.60;99.90;;;;;;4968368;28;20031;-60
2023/10/01 00:55:18;;;;;;;6.97;3.40;;;14.60;99.90;;;;;;4968899;28;20050;-60
2023/10/01 00:57:44;;;;;;;8.23;3.70;;;14.60;99.90;;;;;;4969398;28;20116;-60
2023/10/01 01:00:19;;;;;;;6.95;3.38;;;14.60;99.90;;;;;;4968588;28;20433;-60
2023/10/01 01:03:07;;;;;;;8.10;4.00;;;14.70;99.90;;;;;;4969004;28;20053;-60
2023/10/01 01:05:34;;;;;;;8.45;4.13;;;14.70;99.90;;;;;;4967009;28;20476;-60
2023/10/01 01:08:20;;;;;;;12.02;4.10;;;14.70;99.90;;;;;;4967909;28;20050;-60
2023/10/01 01:10:48;;;;;;;7.95;3.65;;;14.70;99.90;;;;;;4968196;28;20046;-60
2023/10/01 01:13:16;;;;;;;8.32;4.25;;;14.70;99.90;;;;;;4968390;28;20111;-59
2023/10/01 01:15:45;;;;;;;8.95;3.85;;;14.70;99.90;;;;;;4967842;28;20051;-60
2023/10/01 01:18:13;;;;;;;5.25;3.33;;;14.70;99.90;;;;;;4969293;28;20042;-60
2023/10/01 01:20:45;;;;;;;7.30;4.30;;;14.70;99.90;;;;;;4968993;28;20071;-60
2023/10/01 01:23:19;;;;;;;9.30;4.15;;;14.60;99.90;;;;;;4966830;28;20602;-60
2023/10/01 01:25:46;;;;;;;11.65;4.05;;;14.70;99.90;;;;;;4967777;28;20488;-59
2023/10/01 01:28:24;;;;;;;6.60;3.42;;;14.70;99.90;;;;;;4966639;28;20047;-60
2023/10/01 01:30:52;;;;;;;8.73;4.32;;;14.70;99.90;;;;;;4967260;28;20035;-61
2023/10/01 01:33:21;;;;;;;4.70;3.20;;;14.70;99.90;;;;;;4967793;28;20529;-61
2023/10/01 01:35:49;;;;;;;7.60;3.55;;;14.70;99.90;;;;;;4966381;28;20060;-60
2023/10/01 01:38:15;;;;;;;6.40;3.90;;;14.70;99.90;;;;;;4966329;28;20055;-61
2023/10/01 01:40:42;;;;;;;9.07;3.92;;;14.70;99.90;;;;;;4966781;28;20054;-60
2023/10/01 01:43:23;;;;;;;5.63;3.88;;;14.70;99.90;;;;;;4967077;28;20112;-60
2023/10/01 01:45:55;;;;;;;8.23;3.80;;;14.70;99.90;;;;;;4966328;28;20495;-60
2023/10/01 01:48:25;;;;;;;9.32;3.97;;;14.70;99.90;;;;;;4966468;28;20074;-60
2023/10/01 01:50:54;;;;;;;12.65;3.65;;;14.80;99.90;;;;;;4966864;28;20503;-60
2023/10/01 01:53:21;;;;;;;11.98;4.32;;;14.70;99.90;;;;;;4966067;28;20039;-60
2023/10/01 01:55:50;;;;;;;6.10;3.13;;;14.70;99.90;;;;;;4967854;28;20481;-59
2023/10/01 01:58:23;;;;;;;8.88;3.75;;;14.80;99.90;;;;;;4953501;28;20043;-60
2023/10/01 02:03:37;;;;;;;17.50;4.05;;;14.80;99.90;;;;;;4967567;28;20192;-60
2023/10/01 02:06:07;;;;;;;9.15;4.00;;;14.80;99.90;;;;;;4966523;28;20056;-60
2023/10/01 02:08:47;;;;;;;10.25;3.97;;;14.80;99.90;;;;;;4968034;28;20066;-60
2023/10/01 02:11:14;;;;;;;7.85;4.10;;;14.80;99.90;;;;;;4970176;28;20047;-60
2023/10/01 02:13:41;;;;;;;7.15;3.25;;;14.80;99.90;;;;;;4969443;28;20163;-60
2023/10/01 02:16:18;;;;;;;6.95;3.72;;;14.80;99.90;;;;;;4964634;28;20105;-60
2023/10/01 02:18:56;;;;;;;8.05;3.60;;;14.80;99.90;;;;;;4949731;28;20055;-60
2023/10/01 02:21:42;;;;;;;5.82;3.15;;;14.80;99.90;;;;;;4934469;29;20047;-61
2023/10/01 02:24:13;;;;;;;5.97;3.50;;;14.80;99.90;;;;;;4934028;29;20134;-60
2023/10/01 02:26:39;;;;;;;5.82;3.33;;;14.90;99.90;;;;;;4949765;28;20035;-60
2023/10/01 02:29:05;;;;;;;11.65;3.45;;;14.80;99.90;;;;;;4967032;28;20038;-61
2023/10/01 02:31:39;;;;;;;9.55;4.22;;;14.80;99.90;;;;;;4969175;28;20042;-60
2023/10/01 02:34:10;;;;;;;10.40;3.13;;;14.90;99.90;;;;;;4969952;28;20039;-60
2023/10/01 02:36:36;;;;;;;9.93;3.38;;;14.90;99.90;;;;;;4969320;28;20082;-60
2023/10/01 02:39:11;;;;;;;8.73;3.03;;;14.90;99.90;;;;;;4968365;28;20526;-61
2023/10/01 02:41:38;;;;;;;7.32;3.55;;;14.80;99.90;;;;;;4970489;28;20047;-61
2023/10/01 02:44:04;;;;;;;12.40;4.18;;;14.90;99.90;;;;;;4970168;28;20453;-60
2023/10/01 02:46:30;;;;;;;9.07;3.30;;;14.90;99.90;;;;;;4968392;28;20095;-60
2023/10/01 02:48:59;;;;;;;9.38;3.80;;;14.90;99.90;;;;;;4970173;28;20091;-60
2023/10/01 02:51:37;;;;;;;11.18;3.60;;;14.90;99.90;;;;;;4969050;28;20039;-61
2023/10/01 02:54:09;;;;;;;7.38;2.58;;;14.90;99.90;;;;;;4959426;28;20076;-60
2023/10/01 02:56:52;;;;;;;9.52;2.85;;;15.00;99.90;;;;;;4949899;28;20040;-61
2023/10/01 02:59:21;;;;;;;6.07;3.70;;;15.00;99.90;;;;;;4933647;29;20096;-61
2023/10/01 03:01:47;;;;;;;6.77;3.00;;;15.00;99.90;;;;;;4950492;28;20076;-60
2023/10/01 03:04:16;;;;;;;8.35;3.55;;;15.00;99.90;;;;;;4933449;29;20283;-61
2023/10/01 03:06:47;;;;;;;;;;;15.00;99.90;;;;;;4949841;28;20145;-60
2023/10/01 03:09:33;;;;;;;8.73;3.72;;;15.00;99.90;;;;;;4958389;28;20327;-60
2023/10/01 03:15:00;;;;;;;7.95;2.78;;;15.00;99.90;;;;;;4969576;28;20411;-60
2023/10/01 03:17:33;;;;;;;5.28;2.53;;;15.00;99.90;;;;;;4962570;28;20399;-60
2023/10/01 03:20:12;;;;;;;7.35;2.97;;;14.90;99.90;;;;;;4969258;28;20542;-60
2023/10/01 03:22:39;;;;;;;5.95;3.08;;;15.00;99.90;;;;;;4968028;28;20042;-60
2023/10/01 03:25:13;;;;;;;4.95;3.13;;;14.90;99.90;;;;;;4969651;28;20109;-61
2023/10/01 03:27:39;;;;;;;6.57;3.20;;;14.90;99.90;;;;;;4969911;28;20394;-60
2023/10/01 03:30:20;;;;;;;8.68;3.40;;;14.90;99.90;;;;;;4967851;28;20035;-60
2023/10/01 03:32:46;;;;;;;8.25;3.30;;;15.00;99.90;;;;;;4968257;28;20043;-60
2023/10/01 03:35:12;;;;;;;5.97;2.78;;;15.00;99.90;;;;;;4967523;28;20107;-60
2023/10/01 03:37:38;;;;;;;8.55;3.15;;;15.00;99.90;;;;;;4966306;28;20042;-60
2023/10/01 03:40:21;;;;;;;6.90;2.75;;;15.00;99.90;;;;;;4969179;28;20047;-61
2023/10/01 03:42:51;;;;;;;5.97;2.45;;;15.00;99.90;;;;;;4967620;28;20185;-60
2023/10/01 03:47:59;;;;;;;7.38;2.83;;;15.00;99.90;;;;;;4968435;28;20043;-60
2023/10/01 03:50:25;;;;;;;6.30;2.53;;;15.00;99.90;;;;;;4967786;28;20062;-60
2023/10/01 03:52:58;;;;;;;8.32;2.22;;;15.00;99.90;;;;;;4969035;28;20039;-60
2023/10/01 03:55:28;;;;;;;7.80;2.88;;;15.00;99.90;;;;;;4968049;28;20514;-60
2023/10/01 03:58:06;;;;;;;;;;;15.00;99.90;;;;;;4968040;28;20104;-60
2023/10/01 04:03:06;;;;;;;7.78;2.78;;;15.00;99.90;;;;;;4967589;28;20058;-60
2023/10/01 04:05:33;;;;;;;5.85;2.58;;;15.00;99.90;;;;;;4951545;28;20058;-60
2023/10/01 04:08:08;;;;;;;5.15;2.63;;;15.00;99.90;;;;;;4968957;28;20509;-60
2023/10/01 04:10:35;;;;;;;4.60;2.53;;;15.00;99.90;;;;;;4967298;28;20058;-60
2023/10/01 04:13:12;;;;;;;4.28;2.35;;;15.00;99.90;;;;;;4966994;28;20070;-60
2023/10/01 04:15:48;;;;;;;5.80;2.33;;;15.00;99.90;;;;;;4967178;28;20061;-60
2023/10/01 04:23:31;;;;;;;6.95;2.70;;;15.00;99.90;;;;;;4949912;28;20043;-60
2023/10/01 04:26:06;;;;;;;5.30;2.38;;;15.00;99.90;;;;;;4947852;29;20048;-60
2023/10/01 04:28:35;;;;;;;4.55;2.55;;;15.00;99.90;;;;;;4948227;29;20043;-61
2023/10/01 04:31:08;;;;;;;6.43;2.78;;;15.00;99.90;;;;;;4946651;29;20043;-60
2023/10/01 04:33:37;;;;;;;7.05;2.63;;;15.00;99.90;;;;;;4949553;28;20105;-60
2023/10/01 04:36:10;;;;;;;5.95;2.42;;;15.00;99.90;;;;;;4948084;28;20058;-61
2023/10/01 04:38:41;;;;;;;5.78;2.55;;;15.00;99.90;;;;;;4931682;29;20148;-60
2023/10/01 04:41:12;;;;;;;6.63;2.47;;;15.00;99.90;;;;;;4948047;29;20222;-60
2023/10/01 04:43:51;;;;;;;6.07;2.90;;;15.00;99.90;;;;;;4947983;28;20499;-60
2023/10/01 04:46:20;;;;;;;6.15;3.35;;;14.90;99.90;;;;;;4953790;28;20059;-60
2023/10/01 04:48:47;;;;;;;6.50;3.08;;;14.90;99.90;;;;;;4967591;28;20042;-60
2023/10/01 04:51:12;;;;;;;8.10;2.75;;;14.90;99.90;;;;;;4967244;28;20050;-60
2023/10/01 04:53:39;;;;;;;4.63;2.90;;;14.90;99.90;;;;;;4967731;28;20039;-60
2023/10/01 04:56:05;;;;;;;5.55;2.65;;;14.90;99.90;;;;;;4966964;28;20491;-61
2023/10/01 04:58:38;;;;;;;5.43;2.60;;;14.90;99.90;;;;;;4968483;28;20039;-60
2023/10/01 05:01:12;;;;;;;7.43;2.95;;;14.90;99.90;;;;;;4966359;28;20031;-60
2023/10/01 05:03:38;;;;;;;4.15;2.10;;;14.90;99.90;;;;;;4966981;28;20518;-60
2023/10/01 05:06:12;;;;;;;7.53;2.42;;;14.90;99.90;;;;;;4966247;28;20073;-60
2023/10/01 05:08:42;;;;;;;9.48;3.03;;;14.90;99.90;;;;;;4967002;28;20038;-60
2023/10/01 05:11:10;;;;;;;6.18;2.75;;;14.90;99.90;;;;;;4967154;28;20082;-60
2023/10/01 05:13:51;;;;;;;6.88;2.63;;;14.90;99.90;;;;;;4966378;28;20077;-60
2023/10/01 05:16:38;;;;;;;5.60;2.83;;;14.90;99.90;;;;;;4963104;28;20051;-60
2023/10/01 05:19:10;;;;;;;6.72;3.00;;;14.80;99.90;;;;;;4967808;28;20504;-60
2023/10/01 05:21:56;;;;;;;6.78;2.42;;;14.90;99.90;;;;;;4967913;28;20455;-60
2023/10/01 05:24:39;;;;;;;7.07;2.60;;;14.90;99.90;;;;;;4967038;28;20538;-60
2023/10/01 05:27:09;;;;;;;9.68;3.08;;;14.90;99.90;;;;;;4967675;28;20054;-60
2023/10/01 05:29:42;;;;;;;5.88;2.38;;;14.90;99.90;;;;;;4967821;28;20073;-60
2023/10/01 05:32:10;;;;;;;7.88;2.42;;;14.80;99.90;;;;;;4966665;28;20530;-60
2023/10/01 05:34:38;;;;;;;9.32;2.72;;;14.80;99.90;;;;;;4966408;28;20082;-60
2023/10/01 05:37:12;;;;;;;5.05;2.47;;;14.80;99.90;;;;;;4967921;28;20037;-60
2023/10/01 05:39:55;;;;;;;7.07;2.33;;;14.90;99.90;;;;;;4966447;28;20061;-61
2023/10/01 05:42:34;;;;;;;6.78;2.08;;;14.90;99.90;;;;;;4965876;28;20042;-60
2023/10/01 05:44:59;;;;;;;4.23;2.30;;;14.90;99.90;;;;;;4966369;28;20108;-60
2023/10/01 05:48:10;;;;;;;5.10;2.88;;;14.90;99.90;;;;;;4966704;28;20043;-60
2023/10/01 05:50:18;;;;;;;6.32;1.98;;;14.90;99.90;;;;;;4974412;28;20394;-60
2023/10/01 05:52:45;;;;;;;8.17;2.83;;;14.90;99.90;;;;;;4966269;28;20105;-61
2023/10/01 05:55:19;;;;;;;5.78;2.40;;;14.90;99.90;;;;;;4966139;28;20049;-60
2023/10/01 05:57:45;;;;;;;7.75;2.08;;;14.90;99.90;;;;;;4966475;28;20043;-60
2023/10/01 06:00:18;;;;;;;8.65;2.17;;;14.90;99.90;;;;;;4950640;28;20101;-60
2023/10/01 06:02:47;;;;;;;3.95;2.20;;;14.90;99.90;;;;;;4966958;28;20403;-60
2023/10/01 06:05:33;;;;;;;8.60;2.55;;;15.00;99.90;;;;;;4966250;28;20055;-59
2023/10/01 06:08:15;;;;;;;8.95;2.17;;;15.00;99.90;;;;;;4966230;28;20053;-59
2023/10/01 06:11:06;;;;;;;3.63;2.03;;;14.90;99.90;;;;;;4967030;28;20075;-60
2023/10/01 06:13:37;;;;;;;6.43;2.50;;;15.00;99.90;;;;;;4966602;28;20599;-60
2023/10/01 06:16:11;;;;;;;7.63;2.45;;;15.00;99.90;;;;;;4967494;28;20411;-60
2023/10/01 06:18:41;;;;;;;7.90;2.33;;;15.00;99.90;;;;;;4968333;28;20076;-60
2023/10/01 06:21:09;;;;;;;5.57;1.75;;;15.00;99.90;;;;;;4966049;28;20043;-60
2023/10/01 06:23:49;;;;;;;6.18;2.88;;;15.00;99.90;;;;;;4966801;28;20164;-60
2023/10/01 06:26:37;;;;;;;5.45;2.80;;;15.00;99.90;;;;;;4966024;28;20043;-60
2023/10/01 06:29:05;;;;;;;6.93;2.30;;;15.10;99.90;;;;;;4966410;28;20050;-60
2023/10/01 06:34:21;;;;;;;9.02;2.10;;;15.10;99.90;;;;;;4965822;28;20062;-60
2023/10/01 06:36:51;;;;;;;4.35;1.90;;;15.10;99.90;;;;;;4965969;28;20047;-60
2023/10/01 06:39:20;;;;;;;7.57;2.40;;;15.20;99.90;;;;;;4965830;28;20062;-60
2023/10/01 06:41:50;;;;;;;8.65;2.20;;;15.20;99.90;;;;;;4967137;28;20168;-60
2023/10/01 06:44:16;;;;;;;;;;;15.30;99.90;;;;;;4965612;28;20039;-60
2023/10/01 06:46:42;;;;;;;3.55;1.70;;;15.30;99.90;;;;;;4946923;28;19918;-60
2023/10/01 06:49:10;;;;;;;10.73;2.10;;;15.30;99.90;;;;;;4947576;29;20051;-60
2023/10/01 06:51:43;;;;;;;3.83;1.92;;;15.30;99.90;;;;;;4946546;29;20039;-60
2023/10/01 06:54:13;;;;;;;7.00;2.22;;;15.30;99.90;;;;;;4959631;28;20074;-60
2023/10/01 06:56:47;;;;;;;10.38;2.58;;;15.30;99.90;;;;;;4968194;28;20449;-60
2023/10/01 06:59:13;;;;;;;5.03;2.42;;;15.30;99.90;;;;;;4969749;28;20109;-60
2023/10/01 07:01:48;;;;;;;5.38;2.25;;;15.40;99.90;;;;;;4969049;28;20096;-60
2023/10/01 07:04:19;;;;;;;8.15;2.40;;;15.40;99.90;;;;;;4952945;28;20122;-60
2023/10/01 07:06:48;;;;;;;9.73;2.22;;;15.40;99.90;;;;;;4968416;28;20038;-61
2023/10/01 07:09:24;;;;;;;5.50;2.20;;;15.50;99.90;;;;;;4970255;28;20452;-60
2023/10/01 07:11:56;;;;;;;6.72;2.65;;;15.50;99.90;;;;;;4969668;28;20092;-60
2023/10/01 07:14:38;;;;;;;7.28;2.38;;;15.60;99.90;;;;;;4968646;28;20447;-60
2023/10/01 07:17:14;;;;;;;3.92;1.77;;;15.70;99.90;;;;;;4969002;28;20038;-60
2023/10/01 07:19:41;;;;;;;8.77;2.10;;;15.70;99.90;;;;;;4969362;28;20524;-60
2023/10/01 07:22:08;;;;;;;5.32;1.88;;;15.70;99.90;;;;;;4967691;28;20081;-60
2023/10/01 07:24:38;;;;;;;3.88;1.52;;;15.70;99.90;;;;;;4952101;28;20043;-60
2023/10/01 07:27:06;;;;;;;7.50;2.42;;;15.80;99.90;;;;;;4952050;28;20114;-61
2023/10/01 07:29:36;;;;;;;9.48;2.38;;;15.80;99.90;;;;;;4969960;28;20399;-60
2023/10/01 07:32:07;;;;;;;8.98;2.15;;;15.80;99.90;;;;;;4969836;28;20043;-60
2023/10/01 07:34:39;;;;;;;3.42;1.48;;;15.80;99.90;;;;;;4965383;28;20047;-61
2023/10/01 07:37:23;;;;;;;6.00;2.53;;;15.90;99.90;;;;;;4950467;28;20035;-61
2023/10/01 07:40:17;;;;;;;4.97;1.45;;;16.10;99.90;;;;;;4964992;28;20059;-61
2023/10/01 07:42:46;;;;;;;12.98;2.30;;;16.20;99.90;;;;;;4968426;28;20054;-60
2023/10/01 07:45:19;;;;;;;5.45;1.95;;;16.30;99.90;;;;;;4969526;28;20043;-60
2023/10/01 07:47:45;;;;;;;5.47;1.63;;;16.40;99.90;;;;;;4967884;28;20046;-60
2023/10/01 07:50:16;;;;;;;4.50;2.50;;;16.40;99.90;;;;;;4968295;28;20047;-61
2023/10/01 07:52:44;;;;;;;7.25;2.00;;;16.50;99.90;;;;;;4968289;28;20399;-60
2023/10/01 07:55:35;;;;;;;4.72;1.70;;;16.50;99.90;;;;;;4967926;28;20173;-60
2023/10/01 08:01:36;;;;;;;9.70;2.20;;;16.70;99.90;;;;;;5047954;28;20087;-61
2023/10/01 08:03:55;;;;;;;6.60;2.50;;;16.80;99.90;;;;;;5031667;28;20056;-61
2023/10/01 08:06:30;;;;;;;8.20;2.53;;;16.80;99.90;;;;;;5031539;28;20053;-61
2023/10/01 08:09:01;;;;;;;5.65;2.50;;;16.90;99.90;;;;;;5031248;28;20051;-61
2023/10/01 08:14:12;;;;;;;4.47;1.50;;;17.10;99.90;;;;;;5048331;28;20448;-61
2023/10/01 08:16:48;;;;;;;6.43;2.67;;;17.10;99.90;;;;;;5020327;28;20519;-60
2023/10/01 08:19:23;;;;;;;6.82;2.00;;;17.10;99.90;;;;;;5028355;28;20049;-61
2023/10/01 08:21:53;;;;;;;7.85;2.80;;;17.20;99.90;;;;;;5011208;28;20042;-61
2023/10/01 08:24:33;;;;;;;8.27;2.50;;;17.30;99.90;;;;;;4994961;28;20153;-61
2023/10/01 08:27:04;;;;;;;5.18;1.92;;;17.30;99.90;;;;;;5010979;28;20072;-60
2023/10/01 08:29:59;;;;;;;5.30;1.98;;;17.30;99.90;;;;;;5027720;28;20045;-61
2023/10/01 08:32:22;;;;;;;5.63;1.85;;;17.30;99.90;;;;;;5011861;28;20120;-61
2023/10/01 08:35:05;;;;;;;9.65;2.13;;;17.30;99.90;;;;;;5033646;28;20059;-61
2023/10/01 08:37:31;;;;;;;5.45;1.83;;;17.30;99.90;;;;;;4982158;28;20443;-61
2023/10/01 08:40:00;;;;;;;3.88;1.67;;;17.30;99.90;;;;;;4949529;28;20499;-61
2023/10/01 08:42:29;;;;;;;7.97;2.97;;;17.40;99.90;;;;;;4949491;28;20043;-61
2023/10/01 08:45:03;;;;;;;4.43;2.07;;;17.40;99.90;;;;;;4947572;28;20159;-61
2023/10/01 08:47:31;;;;;;;9.85;2.50;;;17.50;99.90;;;;;;4963975;28;20057;-61
2023/10/01 08:58:15;;;;;;;6.53;2.40;;;17.40;99.90;;;;;;4966781;28;20050;-61
2023/10/01 09:00:48;;;;;;;7.05;3.03;;;17.50;99.90;;;;;;4968461;28;20499;-61
2023/10/01 09:03:28;;;;;;;7.07;2.50;;;17.60;99.90;;;;;;4948281;28;20047;-61
2023/10/01 09:06:08;;;;;;;8.75;2.60;;;17.60;99.90;;;;;;4948592;28;20047;-61
2023/10/01 09:08:42;;;;;;;9.00;2.40;;;17.80;99.90;;;;;;4947626;29;20572;-61
2023/10/01 09:11:13;;;;;;;7.32;1.92;;;17.80;99.90;;;;;;4947468;28;20047;-61
2023/10/01 09:13:47;;;;;;;8.23;2.35;;;17.90;99.90;;;;;;4964309;28;20047;-61
2023/10/01 09:16:13;;;;;;;7.03;1.98;;;17.90;99.90;;;;;;4966672;28;20051;-61
2023/10/01 09:19:29;;;;;;;6.53;2.38;;;18.00;99.90;;;;;;4967208;28;20042;-61
2023/10/01 09:21:54;;;;;;;6.35;1.83;;;18.10;99.90;;;;;;4965491;28;20460;-61
2023/10/01 09:24:41;;;;;;;6.57;2.42;;;18.30;99.90;;;;;;4966124;28;20081;-61
2023/10/01 09:27:09;;;;;;;6.72;2.20;;;18.60;99.90;;;;;;4966241;28;20126;-61
2023/10/01 09:29:44;;;;;;;7.93;1.92;;;18.80;99.90;;;;;;4965163;28;20120;-61
2023/10/01 09:32:11;;;;;;;6.85;1.98;;;19.00;99.90;;;;;;4966542;28;20043;-61
2023/10/01 09:34:53;;;;;;;8.90;2.00;;;19.40;99.90;;;;;;4967277;28;20055;-61
2023/10/01 09:37:35;;;;;;;;;;;20.20;99.90;;;;;;4966676;28;20287;-62
2023/10/01 09:42:57;;;;;;;6.78;2.30;;;22.40;99.90;;;;;;4966791;28;20525;-61
2023/10/01 09:45:37;;;;;;;10.65;2.53;;;22.40;99.90;;;;;;4966579;28;20112;-61
2023/10/01 09:48:10;;;;;;;6.38;2.50;;;22.00;99.90;;;;;;4965931;28;20053;-62
2023/10/01 09:50:41;;;;;;;6.50;2.25;;;21.60;99.90;;;;;;4966704;28;20130;-61
2023/10/01 09:53:19;;;;;;;5.80;2.58;;;21.40;99.90;;;;;;4965769;28;20150;-61
2023/10/01 09:55:55;;;;;;;5.85;2.17;;;21.50;99.90;;;;;;4966456;28;20581;-61
2023/10/01 09:58:24;;;;;;;6.47;1.85;;;21.60;99.90;;;;;;4956692;28;20399;-62
2023/10/01 10:01:01;;;;;;;8.90;2.05;;;21.60;99.90;;;;;;4948091;28;20410;-61
2023/10/01 10:03:36;;;;;;;7.90;2.63;;;21.70;99.90;;;;;;4948916;28;20047;-61
2023/10/01 10:06:07;;;;;;;5.28;2.08;;;21.90;99.90;;;;;;4947036;28;20097;-61
2023/10/01 10:08:37;;;;;;;8.23;2.15;;;22.00;99.90;;;;;;4936057;28;20050;-62
2023/10/01 10:11:06;;;;;;;8.15;2.58;;;22.10;99.90;;;;;;4966232;28;20117;-62
2023/10/01 10:13:38;;;;;;;11.35;2.38;;;22.10;99.90;;;;;;4967737;28;20078;-62
2023/10/01 10:19:15;;;;;;;8.18;2.30;;;21.70;99.90;;;;;;4967518;28;20411;-62
2023/10/01 10:24:48;;;;;;;7.65;2.58;;;21.10;99.90;;;;;;4967466;28;20050;-61
2023/10/01 10:27:33;;;;;;;7.55;2.30;;;21.00;99.90;;;;;;4967244;28;20035;-62
2023/10/01 10:30:06;;;;;;;6.22;2.33;;;21.50;99.90;;;;;;4967041;28;20043;-61
2023/10/01 10:32:44;;;;;;;7.35;2.35;;;22.30;99.90;;;;;;4969854;28;20133;-62
2023/10/01 10:35:16;;;;;;;5.10;2.23;;;23.30;99.90;;;;;;4969197;28;20138;-62
2023/10/01 10:37:53;;;;;;;6.55;2.22;;;23.70;99.90;;;;;;4969855;28;20049;-61
2023/10/01 10:43:21;;;;;;;8.57;2.78;;;23.60;99.90;;;;;;4968799;28;20047;-60
2023/10/01 10:45:57;;;;;;;6.03;2.22;;;23.60;99.90;;;;;;4969586;28;20393;-60
2023/10/01 10:48:59;;;;;;;6.75;2.55;;;23.40;99.90;;;;;;4970230;28;20049;-60
2023/10/01 10:51:45;;;;;;;9.98;2.28;;;23.10;99.90;;;;;;4970179;28;20050;-60
2023/10/01 10:54:16;;;;;;;7.10;3.33;;;23.00;99.90;;;;;;4971104;28;20172;-61
2023/10/01 10:56:44;;;;;;;6.25;1.83;;;23.00;99.90;;;;;;4969782;28;20035;-60
2023/10/01 10:59:13;;;;;;;5.72;2.58;;;23.10;99.90;;;;;;4970241;28;20046;-60
2023/10/01 11:01:46;;;;;;;;;;;23.50;99.90;;;;;;4970726;28;20046;-60
2023/10/01 11:04:14;;;;;;;9.90;2.75;;;23.90;99.90;;;;;;4969581;28;19922;-61
2023/10/01 11:06:41;;;;;;;9.88;3.50;;;24.50;99.90;;;;;;4969883;28;20070;-60
2023/10/01 11:09:27;;;;;;;6.18;2.60;;;24.70;99.90;;;;;;4969753;28;20540;-60
2023/10/01 11:12:00;;;;;;;5.57;2.65;;;24.50;99.90;;;;;;4970718;28;20050;-60
2023/10/01 11:14:26;;;;;;;7.88;2.50;;;24.10;99.90;;;;;;4969794;28;20426;-60
2023/10/01 11:16:52;;;;;;;5.53;2.50;;;23.70;99.90;;;;;;4970406;28;20048;-60
2023/10/01 11:19:25;;;;;;;6.55;3.05;;;23.50;99.90;;;;;;4969567;28;20047;-60
2023/10/01 11:21:55;;;;;;;8.43;2.85;;;23.30;99.90;;;;;;4970821;28;20039;-60
2023/10/01 11:24:40;;;;;;;8.65;2.42;;;23.20;99.90;;;;;;4967602;28;20039;-61
2023/10/01 11:27:25;;;;;;;7.05;2.45;;;23.10;99.90;;;;;;4968644;28;20031;-61
2023/10/01 11:30:17;;;;;;;6.80;2.63;;;23.00;99.90;;;;;;4968914;28;20043;-62
2023/10/01 11:33:13;;;;;;;10.50;2.65;;;23.00;99.90;;;;;;4951426;28;20050;-62
2023/10/01 11:36:09;;;;;;;6.78;2.40;;;22.80;99.90;;;;;;4968773;28;20070;-61
2023/10/01 11:38:38;;;;;;;8.10;2.72;;;22.60;99.90;;;;;;4969264;28;20533;-61
2023/10/01 11:41:06;;;;;;;6.70;2.30;;;22.50;99.90;;;;;;4967549;28;20498;-62
2023/10/01 11:43:58;;;;;;;7.13;2.53;;;22.60;99.90;;;;;;4968471;28;20089;-61
2023/10/01 11:49:16;;;;;;;8.30;2.30;;;23.00;99.90;;;;;;4968543;28;20054;-61
2023/10/01 11:51:47;;;;;;;;;;;23.10;99.90;;;;;;4960080;28;20034;-62
2023/10/01 11:54:15;;;;;;;5.60;1.98;;;23.10;99.90;;;;;;4967536;28;20081;-61
2023/10/01 11:56:46;;;;;;;7.97;2.15;;;23.20;99.90;;;;;;4968637;28;20050;-62
2023/10/01 11:59:20;;;;;;;9.18;1.92;;;23.30;99.90;;;;;;4967557;28;20541;-62
2023/10/01 12:01:51;;;;;;;7.05;1.95;;;23.40;99.90;;;;;;4967096;28;20517;-62
2023/10/01 12:04:24;;;;;;;11.05;2.75;;;23.50;99.90;;;;;;4966272;28;20142;-62
2023/10/01 12:06:53;;;;;;;6.65;2.17;;;23.60;99.90;;;;;;4967268;28;20372;-61
2023/10/01 12:09:20;;;;;;;;;;;23.70;99.90;;;;;;4968260;28;20483;-61
2023/10/01 12:12:04;;;;;;;7.82;2.97;;;23.60;99.90;;;;;;4965753;28;20423;-61
2023/10/01 12:14:52;;;;;;;7.20;2.58;;;23.40;99.90;;;;;;4963998;28;20079;-62
2023/10/01 12:17:25;;;;;;;4.45;2.08;;;23.20;99.90;;;;;;4967955;28;20050;-62
2023/10/01 12:20:03;;;;;;;7.35;3.03;;;23.00;99.90;;;;;;4974368;28;20401;-61
2023/10/01 12:22:30;;;;;;;6.13;1.90;;;23.00;99.90;;;;;;4988425;28;20038;-61
2023/10/01 12:25:06;;;;;;;9.80;3.20;;;22.90;99.90;;;;;;4987300;28;20440;-61
2023/10/01 12:27:45;;;;;;;9.20;3.17;;;22.70;99.90;;;;;;4960435;28;20045;-62
2023/10/01 12:30:28;;;;;;;10.43;2.92;;;22.60;99.90;;;;;;4948157;28;20043;-61
2023/10/01 12:32:56;;;;;;;8.45;3.13;;;22.60;99.90;;;;;;4966977;28;20047;-62
2023/10/01 12:35:28;;;;;;;8.07;2.88;;;22.80;99.90;;;;;;4967070;28;20050;-62
2023/10/01 12:38:23;;;;;;;7.55;2.70;;;23.00;99.90;;;;;;4966306;28;20502;-62
2023/10/01 12:40:52;;;;;;;7.55;2.60;;;23.20;99.90;;;;;;4950913;28;20078;-61
2023/10/01 12:43:37;;;;;;;6.68;2.25;;;23.60;99.90;;;;;;4968533;28;20055;-62
2023/10/01 12:46:13;;;;;;;8.35;2.47;;;23.80;99.90;;;;;;4967346;28;20047;-63
2023/10/01 12:51:33;;;;;;;8.70;2.33;;;24.00;99.90;;;;;;4966573;28;20498;-62
2023/10/01 12:54:00;;;;;;;8.15;2.13;;;23.80;99.90;;;;;;4967316;28;20050;-62
2023/10/01 12:56:47;;;;;;;6.00;2.35;;;23.70;99.90;;;;;;4966908;28;20082;-62
2023/10/01 12:59:20;;;;;;;7.05;2.65;;;23.50;99.90;;;;;;4947964;29;20507;-62
2023/10/01 13:01:53;;;;;;;6.18;1.95;;;23.50;99.90;;;;;;4949473;28;20665;-62
2023/10/01 13:04:22;;;;;;;9.68;2.97;;;23.40;99.90;;;;;;4948260;29;20498;-62
2023/10/01 13:07:01;;;;;;;9.27;2.65;;;23.40;99.90;;;;;;4947969;29;20055;-62
2023/10/01 13:12:16;;;;;;;6.03;2.85;;;23.60;99.90;;;;;;4950114;28;20039;-62
2023/10/01 13:14:43;;;;;;;8.85;2.83;;;23.70;99.90;;;;;;4948722;29;20089;-63
2023/10/01 13:17:23;;;;;;;12.93;3.13;;;23.80;99.90;;;;;;5021302;28;20065;-62
2023/10/01 13:19:49;;;;;;;8.27;3.30;;;23.70;99.90;;;;;;4969325;28;20414;-62
2023/10/01 13:22:19;;;;;;;4.85;2.08;;;23.50;99.90;;;;;;4951814;28;20046;-61
2023/10/01 13:24:55;;;;;;;6.22;2.00;;;23.40;99.90;;;;;;4967474;28;20053;-62
2023/10/01 13:27:22;;;;;;;7.43;2.88;;;23.30;99.90;;;;;;4967794;28;20045;-62
2023/10/01 13:29:49;;;;;;;7.60;2.30;;;23.20;99.90;;;;;;4968578;28;20039;-62
2023/10/01 13:32:26;;;;;;;7.18;2.45;;;23.10;99.90;;;;;;4951752;28;20051;-62
2023/10/01 13:34:58;;;;;;;10.40;2.97;;;23.10;99.90;;;;;;4967720;28;20061;-62
2023/10/01 14:10:38;;;;;;;5.25;2.30;;;22.60;99.90;;;;;;4969805;28;20081;-62
2023/10/01 14:13:07;;;;;;;11.75;3.00;;;22.50;99.90;;;;;;4979944;28;20054;-62
2023/10/01 14:15:33;;;;;;;9.48;3.00;;;22.50;99.90;;;;;;4989339;28;20046;-62
2023/10/01 14:18:01;;;;;;;7.25;2.67;;;22.50;99.90;;;;;;4987933;28;20048;-62
2023/10/01 14:20:49;;;;;;;9.75;2.85;;;22.50;99.90;;;;;;4988260;28;20046;-61
2023/10/01 14:23:39;;;;;;;7.82;2.22;;;22.40;99.90;;;;;;4987721;28;20050;-62
2023/10/01 14:26:20;;;;;;;7.63;2.15;;;22.40;99.90;;;;;;4969038;28;20053;-61
2023/10/01 14:28:48;;;;;;;7.55;2.85;;;22.30;99.90;;;;;;4971065;28;20066;-62
2023/10/01 14:31:41;;;;;;;7.65;2.65;;;22.20;99.90;;;;;;4970642;28;20047;-62
2023/10/01 14:34:07;;;;;;;10.68;2.80;;;22.20;99.90;;;;;;4970137;28;20046;-61
2023/10/01 14:36:34;;;;;;;7.88;2.88;;;22.00;99.90;;;;;;4969405;28;20047;-61
2023/10/01 14:39:03;;;;;;;4.85;2.08;;;22.00;99.90;;;;;;4969605;28;20394;-61
2023/10/01 14:41:30;;;;;;;7.20;2.88;;;21.90;99.90;;;;;;4968584;28;20096;-61
2023/10/01 14:43:56;;;;;;;8.95;3.20;;;21.80;99.90;;;;;;4970056;28;20394;-62